Time;durP1;ratioP1;P1;durP2;ratioP2;P2;SDS_P1;SDS_P2;PMS_P1;PMS_P2;Temp;Humidity;BMP_temperature;BMP_pressure;BME280_temperature;BME280_humidity;BME280_pressure;Samples;Min_cycle;Max_cycle;Signal;HPM_P1;HPM_P2
2023/04/26 00:01:15;;;;;;;1999.90;999.90;;;;;;;6.74;100.00;94064.03;5009202;28;20249;-60
2023/04/26 00:03:40;;;;;;;1999.90;999.90;;;;;;;6.74;100.00;94064.03;5009658;28;20215;-59
2023/04/26 00:06:08;;;;;;;1999.90;999.90;;;;;;;6.70;100.00;94067.97;5009196;28;20221;-60
2023/04/26 00:08:36;;;;;;;1999.90;999.90;;;;;;;6.70;100.00;94070.69;5009269;28;20212;-59
2023/04/26 00:11:02;;;;;;;1999.90;999.90;;;;;;;6.65;100.00;94068.44;5009214;28;20198;-60
2023/04/26 00:13:27;;;;;;;1999.90;999.90;;;;;;;6.60;100.00;94066.19;5009064;28;20208;-60
2023/04/26 00:15:53;;;;;;;1999.90;999.90;;;;;;;6.63;100.00;94057.25;5009000;28;20549;-59
2023/04/26 00:18:18;;;;;;;1999.90;999.90;;;;;;;6.61;100.00;94054.16;5009120;28;20200;-60
2023/04/26 00:20:43;;;;;;;1999.90;999.90;;;;;;;6.60;100.00;94058.81;5009435;28;20178;-60
2023/04/26 00:23:09;;;;;;;1999.90;999.90;;;;;;;6.59;100.00;94061.94;5009265;28;20273;-59
2023/04/26 00:25:35;;;;;;;1999.90;999.90;;;;;;;6.59;100.00;94067.34;5009383;28;20204;-59
2023/04/26 00:28:01;;;;;;;1999.90;999.90;;;;;;;6.59;100.00;94068.13;5009264;28;20237;-59
2023/04/26 00:30:26;;;;;;;1999.90;999.90;;;;;;;6.58;100.00;94065.84;5008659;28;20210;-59
2023/04/26 00:32:52;;;;;;;1999.90;999.90;;;;;;;6.59;100.00;94062.72;5008815;28;20206;-59
2023/04/26 00:35:18;;;;;;;1999.90;999.90;;;;;;;6.61;100.00;94059.59;5008616;28;20210;-60
2023/04/26 00:37:43;;;;;;;1999.90;999.90;;;;;;;6.58;100.00;94054.97;5008774;28;20226;-59
2023/04/26 00:40:09;;;;;;;1999.90;999.90;;;;;;;6.55;100.00;94059.28;5008570;28;20202;-59
2023/04/26 00:42:35;;;;;;;1999.90;999.90;;;;;;;6.62;100.00;94061.13;5008436;28;20218;-60
2023/04/26 00:45:00;;;;;;;1999.90;999.90;;;;;;;6.63;100.00;94051.81;5007605;28;20210;-60
2023/04/26 00:47:28;;;;;;;1999.90;999.90;;;;;;;6.58;100.00;94060.41;5008492;28;20247;-59
2023/04/26 00:49:53;;;;;;;1999.90;999.90;;;;;;;6.54;100.00;94056.97;5008264;28;20232;-60
2023/04/26 00:52:19;;;;;;;1999.90;999.90;;;;;;;6.58;100.00;94060.41;5008826;28;20294;-60
2023/04/26 00:54:45;;;;;;;1999.90;999.90;;;;;;;6.60;100.00;94047.22;5008962;28;20203;-60
2023/04/26 00:57:11;;;;;;;1999.90;999.90;;;;;;;6.60;100.00;94058.81;5008245;28;20201;-60
2023/04/26 00:59:36;;;;;;;1999.90;999.90;;;;;;;6.62;100.00;94056.47;5008202;28;20265;-59
2023/04/26 01:02:03;;;;;;;1999.90;999.90;;;;;;;6.60;100.00;94047.97;5008473;28;20234;-60
2023/04/26 01:04:29;;;;;;;1999.90;999.90;;;;;;;6.59;100.00;94051.88;5008716;28;20234;-59
2023/04/26 01:06:55;;;;;;;1999.90;999.90;;;;;;;6.50;100.00;94053.56;5008180;28;20322;-59
2023/04/26 01:09:21;;;;;;;1999.90;999.90;;;;;;;6.51;100.00;94055.88;5008539;28;20304;-59
2023/04/26 01:11:47;;;;;;;1999.90;999.90;;;;;;;6.54;100.00;94046.91;5008048;28;20201;-59
2023/04/26 01:14:14;;;;;;;1999.90;999.90;;;;;;;6.51;100.00;94045.03;5008282;28;20222;-59
2023/04/26 01:16:40;;;;;;;1999.90;999.90;;;;;;;6.55;100.00;94050.38;5007790;28;20278;-59
2023/04/26 01:19:11;;;;;;;1999.90;999.90;;;;;;;6.50;100.00;94040.78;5008040;28;20226;-62
2023/04/26 01:21:37;;;;;;;1999.90;999.90;;;;;;;6.45;100.00;94043.19;5008343;28;20273;-59
2023/04/26 01:24:03;;;;;;;1999.90;999.90;;;;;;;6.36;100.00;94048.34;5008210;28;20202;-59
2023/04/26 01:26:29;;;;;;;1999.90;999.90;;;;;;;6.38;100.00;94046.00;5008111;28;20201;-59
2023/04/26 01:28:55;;;;;;;1999.90;999.90;;;;;;;6.33;100.00;94049.94;5008230;28;20229;-59
2023/04/26 01:31:20;;;;;;;1999.90;999.90;;;;;;;6.34;100.00;94050.72;5007797;28;20213;-59
2023/04/26 01:33:46;;;;;;;1999.90;999.90;;;;;;;6.32;100.00;94047.63;5007798;28;20207;-59
2023/04/26 01:36:11;;;;;;;1999.90;999.90;;;;;;;6.13;100.00;94056.41;5007970;28;20200;-59
2023/04/26 01:38:37;;;;;;;1999.90;999.90;;;;;;;6.22;100.00;94049.31;5007691;28;20441;-59
2023/04/26 01:41:02;;;;;;;1999.90;999.90;;;;;;;6.16;100.00;94048.22;5007688;28;20273;-59
2023/04/26 01:43:28;;;;;;;1999.90;999.90;;;;;;;6.13;100.00;94051.00;5007953;28;20211;-59
2023/04/26 01:45:53;;;;;;;1999.90;999.90;;;;;;;6.06;100.00;94051.09;5007576;28;20219;-59
2023/04/26 01:48:19;;;;;;;1999.90;999.90;;;;;;;6.07;100.00;94052.59;5007679;28;20270;-59
2023/04/26 01:50:44;;;;;;;1999.90;999.90;;;;;;;6.10;100.00;94049.09;5008010;28;20286;-60
2023/04/26 01:53:09;;;;;;;1999.90;999.90;;;;;;;5.99;100.00;94062.00;5007952;28;20241;-59
2023/04/26 01:55:35;;;;;;;1999.90;999.90;;;;;;;6.00;100.00;94052.69;5009560;28;20201;-59
2023/04/26 01:58:00;;;;;;;1999.90;999.90;;;;;;;6.08;100.00;94054.13;5011898;28;20240;-59
2023/04/26 02:00:28;;;;;;;1999.90;999.90;;;;;;;6.13;100.00;94056.41;5012219;28;20229;-60
2023/04/26 02:02:57;;;;;;;1999.90;999.90;;;;;;;6.09;100.00;94059.16;5011613;28;20210;-59
2023/04/26 02:05:23;;;;;;;1999.90;999.90;;;;;;;6.05;100.00;94054.97;5011448;28;20228;-59
2023/04/26 02:07:48;;;;;;;1999.90;999.90;;;;;;;6.04;100.00;94053.41;5011452;28;20225;-59
2023/04/26 02:10:14;;;;;;;1999.90;999.90;;;;;;;6.04;100.00;94053.41;5011551;28;20198;-59
2023/04/26 02:12:39;;;;;;;1999.90;999.90;;;;;;;5.99;100.00;94057.38;5011493;28;20277;-59
2023/04/26 02:15:05;;;;;;;1999.90;999.90;;;;;;;5.96;100.00;94062.81;5011320;28;20206;-61
2023/04/26 02:17:31;;;;;;;1999.90;999.90;;;;;;;5.94;100.00;94065.19;5011651;28;20200;-59
2023/04/26 02:19:56;;;;;;;1999.90;999.90;;;;;;;5.94;100.00;94062.47;5011111;28;20178;-59
2023/04/26 02:22:24;;;;;;;1999.90;999.90;;;;;;;5.89;100.00;94063.69;5011294;28;20210;-59
2023/04/26 02:24:50;;;;;;;1999.90;999.90;;;;;;;5.84;100.00;94049.81;5011521;28;20194;-59
2023/04/26 02:27:15;;;;;;;1999.90;999.90;;;;;;;5.82;100.00;94041.31;5011464;28;20221;-59
2023/04/26 02:29:41;;;;;;;1999.90;999.90;;;;;;;5.79;100.00;94050.25;5011210;28;20195;-59
2023/04/26 02:32:06;;;;;;;1999.90;999.90;;;;;;;5.81;100.00;94045.19;5011297;28;20225;-60
2023/04/26 02:34:32;;;;;;;1999.90;999.90;;;;;;;5.77;100.00;94037.09;5010872;28;20193;-59
2023/04/26 02:36:57;;;;;;;1999.90;999.90;;;;;;;5.73;100.00;94038.31;5011034;28;20198;-59
2023/04/26 02:39:23;;;;;;;1999.90;999.90;;;;;;;5.72;100.00;94037.53;5010890;28;20189;-59
2023/04/26 02:41:48;;;;;;;1999.90;999.90;;;;;;;5.73;100.00;94041.03;5011185;28;20236;-60
2023/04/26 02:44:14;;;;;;;1999.90;999.90;;;;;;;5.71;100.00;94044.13;5010783;28;20208;-59
2023/04/26 02:46:39;;;;;;;1999.90;999.90;;;;;;;5.71;100.00;94036.00;5010893;28;20240;-59
2023/04/26 02:49:04;;;;;;;1999.90;999.90;;;;;;;5.66;100.00;94032.97;5010739;28;20207;-60
2023/04/26 02:51:32;;;;;;;1999.90;999.90;;;;;;;5.63;100.00;94034.56;5010984;28;20183;-59
2023/04/26 02:53:58;;;;;;;1999.90;999.90;;;;;;;5.66;100.00;94032.97;5010494;28;20202;-60
2023/04/26 02:56:23;;;;;;;1999.90;999.90;;;;;;;5.61;100.00;94033.44;5011034;28;20210;-60
2023/04/26 02:58:49;;;;;;;1999.90;999.90;;;;;;;5.62;100.00;94035.75;5010726;28;20211;-59
2023/04/26 03:01:15;;;;;;;1999.90;999.90;;;;;;;5.62;100.00;94029.56;5010948;28;20206;-59
2023/04/26 03:03:41;;;;;;;1999.90;999.90;;;;;;;5.56;100.00;94033.88;5010698;28;20270;-59
2023/04/26 03:06:06;;;;;;;1999.90;999.90;;;;;;;5.56;100.00;94028.44;5010038;28;20198;-60
2023/04/26 03:08:33;;;;;;;1999.90;999.90;;;;;;;5.61;100.00;94030.72;5009534;28;20197;-60
2023/04/26 03:11:00;;;;;;;1999.90;999.90;;;;;;;5.62;100.00;94032.25;5010387;28;20190;-59
2023/04/26 03:13:25;;;;;;;1999.90;999.90;;;;;;;5.61;100.00;94030.72;5010329;28;20215;-60
2023/04/26 03:15:52;;;;;;;1999.90;999.90;;;;;;;5.63;100.00;94039.97;5010659;28;20194;-59
2023/04/26 03:18:18;;;;;;;1999.90;999.90;;;;;;;5.58;100.00;94032.28;5010177;28;20194;-59
2023/04/26 03:20:45;;;;;;;1999.90;999.90;;;;;;;5.56;100.00;94028.44;5010015;28;20264;-60
2023/04/26 03:23:10;;;;;;;1999.90;999.90;;;;;;;5.58;100.00;94031.53;5010374;28;20276;-59
2023/04/26 03:25:36;;;;;;;1999.90;999.90;;;;;;;5.57;100.00;94035.41;5010009;28;20213;-59
2023/04/26 03:28:01;;;;;;;1999.90;999.90;;;;;;;5.55;100.00;94043.16;5010330;28;20202;-59
2023/04/26 03:30:27;;;;;;;1999.90;999.90;;;;;;;5.57;100.00;94046.25;5010183;28;20223;-60
2023/04/26 03:32:53;;;;;;;1999.90;999.90;;;;;;;5.57;100.00;94035.41;5010018;28;20202;-60
2023/04/26 03:35:18;;;;;;;1999.90;999.90;;;;;;;5.54;100.00;94047.81;5009960;28;20221;-60
2023/04/26 03:37:44;;;;;;;1999.90;999.90;;;;;;;5.58;100.00;94042.38;5009690;28;20194;-59
2023/04/26 03:40:10;;;;;;;1999.90;999.90;;;;;;;5.54;100.00;94047.81;5009759;28;20194;-61
2023/04/26 03:42:36;;;;;;;1999.90;999.90;;;;;;;5.57;100.00;94046.25;5009553;28;20209;-59
2023/04/26 03:45:02;;;;;;;1999.90;999.90;;;;;;;5.58;100.00;94053.19;5009410;28;20201;-63
2023/04/26 03:47:31;;;;;;;1999.90;999.90;;;;;;;5.59;100.00;94049.31;5009423;28;20198;-59
2023/04/26 03:49:56;;;;;;;1999.90;999.90;;;;;;;5.60;100.00;94056.25;5009433;28;20200;-59
2023/04/26 03:52:22;;;;;;;1999.90;999.90;;;;;;;5.53;100.00;94061.75;5009756;28;20167;-59
2023/04/26 03:54:47;;;;;;;1999.90;999.90;;;;;;;5.56;100.00;94055.53;5009764;28;20204;-59
2023/04/26 03:57:13;;;;;;;1999.90;999.90;;;;;;;5.58;100.00;94058.59;5009653;28;20217;-59
2023/04/26 03:59:38;;;;;;;1999.90;999.90;;;;;;;5.57;100.00;94067.91;5009449;28;20212;-59
2023/04/26 04:02:03;;;;;;;1999.90;999.90;;;;;;;5.59;100.00;94062.84;5009037;28;20205;-59
2023/04/26 04:04:29;;;;;;;1999.90;999.90;;;;;;;5.64;100.00;94073.22;5009203;28;20228;-59
2023/04/26 04:06:54;;;;;;;1999.90;999.90;;;;;;;5.70;100.00;94071.63;5009258;28;20199;-59
2023/04/26 04:09:20;;;;;;;1999.90;999.90;;;;;;;5.67;100.00;94069.72;5009031;28;20201;-59
2023/04/26 04:11:45;;;;;;;1999.90;999.90;;;;;;;5.54;100.00;94080.28;5009158;28;20197;-59
2023/04/26 04:14:11;;;;;;;1999.90;999.90;;;;;;;5.62;100.00;94072.88;5009216;28;20194;-59
2023/04/26 04:16:36;;;;;;;1999.90;999.90;;;;;;;5.63;100.00;94068.97;5009217;28;20197;-60
2023/04/26 04:19:02;;;;;;;1999.90;999.90;;;;;;;5.66;100.00;94070.88;5008992;28;20209;-60
2023/04/26 04:21:27;;;;;;;1999.90;999.90;;;;;;;5.69;100.00;94072.78;5008545;28;20193;-60
2023/04/26 04:23:53;;;;;;;1999.90;999.90;;;;;;;5.68;100.00;94068.56;5009286;28;20212;-59
2023/04/26 04:26:19;;;;;;;1999.90;999.90;;;;;;;5.73;100.00;94065.41;5009540;28;20190;-59
2023/04/26 04:28:46;;;;;;;1999.90;999.90;;;;;;;5.72;100.00;94069.28;5009132;28;20300;-60
2023/04/26 04:31:11;;;;;;;1999.90;999.90;;;;;;;5.74;100.00;94078.53;5009025;28;20193;-60
2023/04/26 04:33:37;;;;;;;1999.90;999.90;;;;;;;5.74;100.00;94083.94;5008510;28;20190;-60
2023/04/26 04:36:03;;;;;;;1999.90;999.90;;;;;;;5.74;100.00;94094.00;5008869;28;20185;-59
2023/04/26 04:38:29;;;;;;;1999.90;999.90;;;;;;;5.77;100.00;94083.16;5008508;28;20219;-60
2023/04/26 04:40:55;;;;;;;1999.90;999.90;;;;;;;5.76;100.00;94097.84;5008613;28;20189;-60
2023/04/26 04:43:22;;;;;;;1999.90;999.90;;;;;;;5.75;100.00;94096.31;5008458;28;20206;-60
2023/04/26 04:45:48;;;;;;;1999.90;999.90;;;;;;;5.81;100.00;94089.31;5008399;28;20245;-61
2023/04/26 04:48:13;;;;;;;1999.90;999.90;;;;;;;5.84;100.00;94096.63;5008904;28;20191;-60
2023/04/26 04:50:40;;;;;;;1999.90;999.90;;;;;;;5.87;100.00;94097.75;5008179;28;20201;-60
2023/04/26 04:53:07;;;;;;;1999.90;999.90;;;;;;;5.85;100.00;94100.09;5008068;28;20186;-59
2023/04/26 04:55:33;;;;;;;1999.90;999.90;;;;;;;5.86;100.00;94098.91;5008738;28;20198;-60
2023/04/26 04:57:58;;;;;;;1999.90;999.90;;;;;;;5.88;100.00;94110.13;5008701;28;20194;-60
2023/04/26 05:00:24;;;;;;;1999.90;999.90;;;;;;;5.87;100.00;94108.59;5008392;28;20193;-60
2023/04/26 05:02:49;;;;;;;1999.90;999.90;;;;;;;5.93;100.00;94101.53;5008012;28;20197;-61
2023/04/26 05:05:14;;;;;;;1999.90;999.90;;;;;;;5.92;100.00;94110.84;5008391;28;20192;-60
2023/04/26 05:07:40;;;;;;;1999.90;999.90;;;;;;;5.95;100.00;94118.19;5007912;28;20210;-60
2023/04/26 05:10:06;;;;;;;1999.90;999.90;;;;;;;6.00;100.00;94126.63;5007971;28;20265;-60
2023/04/26 05:12:32;;;;;;;1999.90;999.90;;;;;;;6.03;100.00;94128.53;5007866;28;20186;-60
2023/04/26 05:14:57;;;;;;;1999.90;999.90;;;;;;;6.11;100.00;94137.31;5008418;28;20191;-59
2023/04/26 05:17:23;;;;;;;1999.90;999.90;;;;;;;6.11;100.00;94142.75;5007861;28;20192;-60
2023/04/26 05:19:48;;;;;;;1999.90;999.90;;;;;;;6.11;100.00;94129.97;5007944;28;20216;-60
2023/04/26 05:22:21;;;;;;;1999.90;999.90;;;;;;;6.21;100.00;94139.16;5007728;28;20206;-59
2023/04/26 05:24:47;;;;;;;1999.90;999.90;;;;;;;6.32;100.00;94146.00;5008241;28;20197;-59
2023/04/26 05:27:13;;;;;;;1999.90;999.90;;;;;;;6.39;100.00;94147.84;5008090;28;20199;-60
2023/04/26 05:29:38;;;;;;;1999.90;999.90;;;;;;;6.48;100.00;94158.94;5006958;28;20209;-59
2023/04/26 05:32:04;;;;;;;1999.90;999.90;;;;;;;6.30;100.00;94177.34;5007574;28;20243;-59
2023/04/26 05:34:29;;;;;;;1999.90;999.90;;;;;;;6.36;100.00;94183.88;5007548;28;20262;-61
2023/04/26 05:36:58;;;;;;;1999.90;999.90;;;;;;;6.47;100.00;94179.88;5007630;28;20301;-61
2023/04/26 05:39:23;;;;;;;1999.90;999.90;;;;;;;6.52;100.00;94187.53;5007538;28;20198;-59
2023/04/26 05:41:48;;;;;;;1999.90;999.90;;;;;;;6.43;100.00;94200.84;5007268;28;20187;-60
2023/04/26 05:44:14;;;;;;;1999.90;999.90;;;;;;;6.46;100.00;94215.53;5007400;28;20230;-59
2023/04/26 05:46:40;;;;;;;1999.90;999.90;;;;;;;6.53;100.00;94213.47;5007410;28;20197;-60
2023/04/26 05:49:05;;;;;;;1999.90;999.90;;;;;;;6.56;100.00;94209.22;5007383;28;20265;-59
2023/04/26 05:51:31;;;;;;;1999.90;999.90;;;;;;;6.48;100.00;94229.44;5007273;28;20174;-59
2023/04/26 05:53:56;;;;;;;1999.90;999.90;;;;;;;6.43;100.00;94238.03;5007820;28;20187;-60
2023/04/26 05:56:23;;;;;;;1999.90;999.90;;;;;;;6.48;100.00;94251.13;5007117;28;20182;-60
2023/04/26 05:58:48;;;;;;;1999.90;999.90;;;;;;;6.57;100.00;94256.84;5007252;28;20202;-60
2023/04/26 06:01:14;;;;;;;1999.90;999.90;;;;;;;6.64;100.00;94256.75;5007591;28;20191;-60
2023/04/26 06:03:39;;;;;;;1999.90;999.90;;;;;;;6.70;100.00;94263.25;5007023;28;20215;-59
2023/04/26 06:06:05;;;;;;;1999.90;999.90;;;;;;;6.83;100.00;94272.41;5007184;28;20193;-59
2023/04/26 06:08:30;;;;;;;1999.90;999.90;;;;;;;6.93;100.00;94290.50;5007304;28;20358;-60
2023/04/26 06:10:55;;;;;;;1999.90;999.90;;;;;;;6.99;100.00;94297.00;5007681;28;20199;-60
2023/04/26 06:13:21;;;;;;;1999.90;999.90;;;;;;;6.97;100.00;94320.31;5007405;28;20197;-61
2023/04/26 06:15:46;;;;;;;1999.90;999.90;;;;;;;7.08;100.00;94338.00;5007152;28;20201;-59
2023/04/26 06:18:11;;;;;;;1999.90;999.90;;;;;;;7.18;100.00;94352.63;5007293;28;20323;-60
2023/04/26 06:20:37;;;;;;;1999.90;999.90;;;;;;;7.27;100.00;94377.31;5007210;28;20202;-62
2023/04/26 06:23:02;;;;;;;1999.90;999.90;;;;;;;7.20;100.00;94427.06;5006909;28;20207;-59
2023/04/26 06:25:27;;;;;;;1999.90;999.90;;;;;;;7.22;100.00;94462.72;5007587;28;20205;-59
2023/04/26 06:27:53;;;;;;;1999.90;999.90;;;;;;;7.18;100.00;94512.78;5007127;28;20194;-59
2023/04/26 06:30:19;;;;;;;1999.90;999.90;;;;;;;7.21;100.00;94558.16;5007249;28;20194;-63
2023/04/26 06:32:44;;;;;;;1999.90;999.90;;;;;;;7.22;100.00;94584.91;5007528;28;20282;-60
2023/04/26 06:35:10;;;;;;;1999.90;999.90;;;;;;;7.19;100.00;94599.28;5007224;28;20201;-61
2023/04/26 06:37:37;;;;;;;1999.90;999.90;;;;;;;7.22;100.00;94620.19;5006932;28;20199;-59
2023/04/26 06:40:02;;;;;;;1999.90;999.90;;;;;;;7.32;100.00;94641.03;5006767;28;20183;-60
2023/04/26 06:42:28;;;;;;;1999.90;999.90;;;;;;;7.72;100.00;94651.16;5009495;28;20206;-60
2023/04/26 06:44:53;;;;;;;1999.90;999.90;;;;;;;8.12;100.00;94661.22;5010177;28;20194;-60
2023/04/26 06:47:18;;;;;;;1999.90;999.90;;;;;;;9.48;100.00;94674.97;5010647;28;20192;-60
2023/04/26 06:49:44;;;;;;;1999.90;999.90;;;;;;;10.40;100.00;94821.56;5010488;28;20188;-60
2023/04/26 06:52:09;;;;;;;1999.90;999.90;;;;;;;10.88;100.00;94987.72;5010833;28;20194;-60
2023/04/26 06:54:35;;;;;;;1999.90;999.90;;;;;;;11.22;100.00;95135.91;5010375;28;20181;-60
2023/04/26 06:57:01;;;;;;;1999.90;999.90;;;;;;;11.85;100.00;95241.63;5010620;28;20206;-60
2023/04/26 06:59:26;;;;;;;1999.90;999.90;;;;;;;12.36;100.00;95293.19;5010928;28;20191;-61
2023/04/26 07:01:52;;;;;;;1999.90;999.90;;;;;;;12.74;100.00;95330.09;5010526;28;20202;-60
2023/04/26 07:04:19;;;;;;;1999.90;999.90;;;;;;;12.20;100.00;95339.63;5010267;28;20201;-61
2023/04/26 07:06:45;;;;;;;1999.90;999.90;;;;;;;11.75;100.00;95341.03;5010736;28;20195;-61
2023/04/26 07:09:11;;;;;;;1999.90;999.90;;;;;;;11.17;100.00;95344.09;5009800;28;20201;-61
2023/04/26 07:11:36;;;;;;;1999.90;999.90;;;;;;;10.89;100.00;95352.59;5010154;28;20195;-60
2023/04/26 07:14:02;;;;;;;1999.90;999.90;;;;;;;10.62;100.00;95351.69;5010072;28;20310;-61
2023/04/26 07:16:27;;;;;;;1999.90;999.90;;;;;;;10.21;100.00;95351.63;5010233;28;20195;-61
2023/04/26 07:18:53;;;;;;;1999.90;999.90;;;;;;;9.99;100.00;95345.50;5010574;28;20221;-63
2023/04/26 07:21:18;;;;;;;1999.90;999.90;;;;;;;10.01;100.00;95340.44;5010171;28;20187;-61
2023/04/26 07:23:43;;;;;;;1999.90;999.90;;;;;;;10.29;100.00;95333.25;5009769;28;20237;-61
2023/04/26 07:26:12;;;;;;;1999.90;999.90;;;;;;;10.44;100.00;95340.91;5010481;28;20237;-61
2023/04/26 07:28:37;;;;;;;1999.90;999.90;;;;;;;10.49;100.00;95337.00;5010373;28;20199;-61
2023/04/26 07:31:03;;;;;;;1999.90;999.90;;;;;;;10.55;100.00;95335.34;5009762;28;20199;-61
2023/04/26 07:33:29;;;;;;;1999.90;999.90;;;;;;;11.14;100.00;95329.28;5009838;28;20198;-62
2023/04/26 07:35:56;;;;;;;1999.90;999.90;;;;;;;11.69;100.00;95327.03;5009737;28;20198;-61
2023/04/26 07:38:22;;;;;;;1999.90;999.90;;;;;;;12.55;100.00;95333.56;5010012;28;20199;-62
2023/04/26 07:40:47;;;;;;;1999.90;999.90;;;;;;;12.27;100.00;95339.50;5010106;28;20202;-62
2023/04/26 07:43:14;;;;;;;1999.90;999.90;;;;;;;11.98;100.00;95341.88;5009545;28;20214;-63
2023/04/26 07:45:40;;;;;;;1999.90;999.90;;;;;;;11.68;100.00;95341.13;5009445;28;20272;-63
2023/04/26 07:48:05;;;;;;;1999.90;999.90;;;;;;;11.18;100.00;95345.66;5009606;28;20244;-63
2023/04/26 07:50:31;;;;;;;1999.90;999.90;;;;;;;13.34;100.00;95338.03;5009567;28;20186;-63
2023/04/26 07:52:56;;;;;;;1999.90;999.90;;;;;;;13.48;100.00;95343.22;5008760;28;20290;-62
2023/04/26 07:55:21;;;;;;;1999.90;999.90;;;;;;;14.29;100.00;95346.97;5009285;28;20179;-61
2023/04/26 07:57:47;;;;;;;1999.90;999.90;;;;;;;15.12;100.00;95341.31;5009797;28;20278;-64
2023/04/26 08:00:15;;;;;;;1999.90;999.90;;;;;;;18.56;100.00;95343.72;5009901;28;20191;-62
2023/04/26 08:02:41;;;;;;;1999.90;999.90;;;;;;;17.91;100.00;95352.13;5009595;28;20222;-60
2023/04/26 08:05:07;;;;;;;1999.90;999.90;;;;;;;17.30;100.00;95346.44;5009013;28;20194;-62
2023/04/26 08:07:33;;;;;;;1999.90;999.90;;;;;;;18.04;100.00;95343.78;5009088;28;20495;-62
2023/04/26 08:09:58;;;;;;;1999.90;999.90;;;;;;;17.74;100.00;95352.81;5009270;28;20214;-61
2023/04/26 08:12:23;;;;;;;1999.90;999.90;;;;;;;17.39;100.00;95354.81;5009030;28;20199;-62
2023/04/26 08:14:49;;;;;;;1999.90;999.90;;;;;;;16.06;100.00;95348.88;5009128;28;20225;-63
2023/04/26 08:17:14;;;;;;;1999.90;999.90;;;;;;;15.72;100.00;95354.25;5008882;28;20199;-64
2023/04/26 08:19:40;;;;;;;1999.90;999.90;;;;;;;16.14;100.00;95349.47;5008963;28;20205;-61
2023/04/26 08:22:06;;;;;;;1999.90;999.90;;;;;;;16.15;100.00;95351.00;5008752;28;20211;-60
2023/04/26 08:24:31;;;;;;;1999.90;999.90;;;;;;;16.56;100.00;95342.63;5008342;28;20191;-62
2023/04/26 08:26:57;;;;;;;1999.90;999.90;;;;;;;17.10;100.00;95353.47;5009094;28;20190;-61
2023/04/26 08:29:23;;;;;;;1999.90;999.90;;;;;;;16.86;100.00;95350.31;5008417;28;20210;-62
2023/04/26 08:31:49;;;;;;;1999.90;999.90;;;;;;;17.16;100.00;95348.94;5008669;28;20203;-63
2023/04/26 08:34:14;;;;;;;1999.90;999.90;;;;;;;18.16;100.00;95345.66;5009020;28;20239;-62
2023/04/26 08:36:44;;;;;;;1999.90;999.90;;;;;;;17.70;89.96;95352.16;5008720;28;20199;-62
2023/04/26 08:39:11;;;;;;;1999.90;999.90;;;;;;;17.47;94.50;95347.84;5008504;28;20195;-62
2023/04/26 08:41:42;;;;;;;1999.90;999.90;;;;;;;17.98;90.87;95346.34;5008336;28;20222;-61
2023/04/26 08:44:08;;;;;;;1999.90;999.90;;;;;;;16.94;88.46;95356.38;5008440;28;20234;-61
2023/04/26 08:46:38;;;;;;;1999.90;999.90;;;;;;;15.90;93.23;95349.00;5008495;28;20191;-62
2023/04/26 08:49:42;;;;;;;1999.90;999.90;;;;;;;15.65;100.00;95340.66;5008139;28;20245;-61
2023/04/26 08:52:13;;;;;;;1999.90;999.90;;;;;;;15.35;100.00;95343.06;4978761;28;20206;-61
2023/04/26 08:54:40;;;;;;;1999.90;999.90;;;;;;;14.87;100.00;95346.72;5008944;28;20195;-61
2023/04/26 08:57:06;;;;;;;1999.90;999.90;;;;;;;14.50;100.00;95349.97;5008310;28;20201;-63
2023/04/26 08:59:34;;;;;;;1999.90;999.90;;;;;;;13.62;100.00;95351.16;5008188;28;20198;-64
2023/04/26 09:02:02;;;;;;;1999.90;999.90;;;;;;;13.00;100.00;95345.69;5008253;28;20206;-64
2023/04/26 09:04:27;;;;;;;1999.90;999.90;;;;;;;12.45;100.00;95350.94;5007432;28;20191;-63
2023/04/26 09:06:58;;;;;;;1999.90;999.90;;;;;;;12.41;100.00;95355.69;5007964;28;20274;-64
2023/04/26 09:09:26;;;;;;;1999.90;999.90;;;;;;;12.36;100.00;95347.97;5008500;28;20190;-63
2023/04/26 09:11:56;;;;;;;1999.90;999.90;;;;;;;12.47;100.00;95354.03;5007867;28;20349;-65
2023/04/26 09:14:22;;;;;;;1999.90;999.90;;;;;;;12.59;100.00;95356.97;5008372;28;20190;-63
2023/04/26 09:16:48;;;;;;;1999.90;999.90;;;;;;;12.49;100.00;95357.13;5008133;28;20199;-63
2023/04/26 09:19:13;;;;;;;1999.90;999.90;;;;;;;12.50;100.00;95353.97;5007901;28;20199;-64
2023/04/26 09:21:44;;;;;;;1999.90;999.90;;;;;;;12.58;100.00;95354.66;5007772;28;20217;-64
2023/04/26 09:24:10;;;;;;;1999.90;999.90;;;;;;;12.39;100.00;95347.13;5007988;28;20214;-63
2023/04/26 09:26:35;;;;;;;1999.90;999.90;;;;;;;12.42;100.00;95351.78;5007805;28;20199;-63
2023/04/26 09:29:14;;;;;;;1999.90;999.90;;;;;;;12.60;100.00;95352.25;5007617;28;20195;-63
2023/04/26 09:31:45;;;;;;;1999.90;999.90;;;;;;;12.51;100.00;95349.28;5007692;28;20195;-64
2023/04/26 09:34:12;;;;;;;1999.90;999.90;;;;;;;12.27;100.00;95344.97;5007889;28;20195;-65
2023/04/26 09:36:48;;;;;;;1999.90;999.90;;;;;;;12.07;100.00;95353.09;5007664;28;20179;-64
2023/04/26 09:39:14;;;;;;;1999.90;999.90;;;;;;;12.11;100.00;95353.81;5007605;28;20226;-64
2023/04/26 09:41:45;;;;;;;1999.90;999.90;;;;;;;12.15;100.00;95348.28;5007971;28;20194;-63
2023/04/26 09:44:22;;;;;;;1999.90;999.90;;;;;;;12.25;100.00;95341.88;5007975;28;20211;-62
2023/04/26 09:47:16;;;;;;;1999.90;999.90;;;;;;;12.64;100.00;95345.53;5007320;28;20221;-63
2023/04/26 09:49:47;;;;;;;1999.90;999.90;;;;;;;12.87;100.00;95342.00;4995255;28;20276;-63
2023/04/26 09:52:14;;;;;;;1999.90;999.90;;;;;;;13.38;100.00;95341.47;5007526;28;20190;-65
2023/04/26 09:54:45;;;;;;;1999.90;999.90;;;;;;;13.58;100.00;95349.69;5007228;28;20186;-64
2023/04/26 09:57:13;;;;;;;1999.90;999.90;;;;;;;14.55;100.00;95341.22;5007543;28;20202;-63
2023/04/26 09:59:46;;;;;;;1999.90;999.90;;;;;;;14.50;100.00;95343.72;5007918;28;20203;-64
2023/04/26 10:02:19;;;;;;;1999.90;999.90;;;;;;;14.25;100.00;95347.06;5007677;28;20228;-64
2023/04/26 10:04:46;;;;;;;1999.90;999.90;;;;;;;13.85;100.00;95353.81;5007351;28;20223;-63
2023/04/26 10:07:13;;;;;;;1999.90;999.90;;;;;;;13.19;100.00;95344.97;5007296;28;20216;-62
2023/04/26 10:09:39;;;;;;;1999.90;999.90;;;;;;;13.38;100.00;95344.97;5007208;28;20195;-63
2023/04/26 10:12:05;;;;;;;1999.90;999.90;;;;;;;13.25;100.00;95348.75;5007612;28;20191;-64
2023/04/26 10:14:30;;;;;;;1999.90;999.90;;;;;;;12.94;100.00;95347.38;5007742;28;20217;-64
2023/04/26 10:16:57;;;;;;;1999.90;999.90;;;;;;;13.06;100.00;95344.03;5009605;28;20194;-63
2023/04/26 10:19:23;;;;;;;1999.90;999.90;;;;;;;12.80;100.00;95350.34;5011151;28;20210;-64
2023/04/26 10:21:51;;;;;;;1999.90;999.90;;;;;;;12.24;100.00;95345.81;5011507;28;20199;-64
2023/04/26 10:24:17;;;;;;;1999.90;999.90;;;;;;;12.37;100.00;95341.28;5011665;28;20202;-64
2023/04/26 10:26:53;;;;;;;1999.90;999.90;;;;;;;12.14;100.00;95324.84;4994630;28;20207;-63
2023/04/26 10:29:46;;;;;;;1999.90;999.90;;;;;;;12.74;100.00;95321.88;5011472;28;20253;-63
2023/04/26 10:32:15;;;;;;;1999.90;999.90;;;;;;;14.17;100.00;95331.13;5010972;28;20202;-63
2023/04/26 10:34:41;;;;;;;1999.90;999.90;;;;;;;15.73;100.00;95311.72;5011048;28;20191;-64
2023/04/26 10:37:14;;;;;;;1999.90;999.90;;;;;;;16.15;100.00;95310.44;5010432;28;20266;-61
2023/04/26 10:39:41;;;;;;;1999.90;999.90;;;;;;;16.98;100.00;95307.38;5011326;28;20250;-62
2023/04/26 10:42:29;;;;;;;1999.90;999.90;;;;;;;17.27;99.79;95314.22;5011146;28;20207;-62
2023/04/26 10:44:58;;;;;;;1999.90;999.90;;;;;;;18.30;93.79;95314.72;5011042;28;20203;-60
2023/04/26 10:47:30;;;;;;;1999.90;999.90;;;;;;;19.27;79.70;95300.84;5010480;28;20225;-63
2023/04/26 10:50:03;;;;;;;1999.90;999.90;;;;;;;19.34;73.95;95306.09;5010809;28;20195;-62